sensor_id;sensor_type;location;lat;lon;timestamp;pressure;altitude;pressure_sealevel;temperature;humidity
24336;BME280;33098;52.400;16.880;2022-08-19T00:01:34;100103.59;;;26.56;57.35
24336;BME280;33098;52.400;16.880;2022-08-19T00:04:02;100099.02;;;26.53;57.46
24336;BME280;33098;52.400;16.880;2022-08-19T00:06:29;100093.90;;;26.51;57.65
24336;BME280;33098;52.400;16.880;2022-08-19T00:08:56;100090.07;;;26.48;57.74
24336;BME280;33098;52.400;16.880;2022-08-19T00:11:23;100090.31;;;26.49;57.95
24336;BME280;33098;52.400;16.880;2022-08-19T00:13:50;100088.59;;;26.48;58.00
24336;BME280;33098;52.400;16.880;2022-08-19T00:16:17;100092.54;;;26.49;57.85
24336;BME280;33098;52.400;16.880;2022-08-19T00:18:47;100088.01;;;26.49;57.85
24336;BME280;33098;52.400;16.880;2022-08-19T00:21:14;100089.36;;;26.48;57.80
24336;BME280;33098;52.400;16.880;2022-08-19T00:23:42;100086.73;;;26.48;58.03
24336;BME280;33098;52.400;16.880;2022-08-19T00:26:09;100085.77;;;26.49;57.82
24336;BME280;33098;52.400;16.880;2022-08-19T00:28:36;100088.20;;;26.48;57.91
24336;BME280;33098;52.400;16.880;2022-08-19T00:31:03;100088.58;;;26.50;58.06
24336;BME280;33098;52.400;16.880;2022-08-19T00:33:31;100087.53;;;26.52;57.93
24336;BME280;33098;52.400;16.880;2022-08-19T00:36:01;100084.90;;;26.49;57.80
24336;BME280;33098;52.400;16.880;2022-08-19T00:38:28;100087.46;;;26.46;58.03
24336;BME280;33098;52.400;16.880;2022-08-19T00:40:54;100081.08;;;26.44;58.10
24336;BME280;33098;52.400;16.880;2022-08-19T00:43:21;100089.56;;;26.43;58.02
24336;BME280;33098;52.400;16.880;2022-08-19T00:45:48;100095.81;;;26.44;58.30
24336;BME280;33098;52.400;16.880;2022-08-19T00:48:16;100092.04;;;26.46;58.35
24336;BME280;33098;52.400;16.880;2022-08-19T00:50:43;100087.84;;;26.46;58.38
24336;BME280;33098;52.400;16.880;2022-08-19T00:53:11;100083.19;;;26.48;58.23
24336;BME280;33098;52.400;16.880;2022-08-19T00:55:38;100079.84;;;26.47;58.03
24336;BME280;33098;52.400;16.880;2022-08-19T00:58:07;100078.83;;;26.46;58.05
24336;BME280;33098;52.400;16.880;2022-08-19T01:00:34;100080.24;;;26.44;58.18
24336;BME280;33098;52.400;16.880;2022-08-19T01:03:07;100079.27;;;26.44;58.33
24336;BME280;33098;52.400;16.880;2022-08-19T01:05:34;100076.80;;;26.41;58.46
24336;BME280;33098;52.400;16.880;2022-08-19T01:08:02;100074.73;;;26.39;58.61
24336;BME280;33098;52.400;16.880;2022-08-19T01:10:30;100072.70;;;26.41;58.62
24336;BME280;33098;52.400;16.880;2022-08-19T01:12:58;100069.92;;;26.41;58.63
24336;BME280;33098;52.400;16.880;2022-08-19T01:15:32;100066.71;;;26.42;58.68
24336;BME280;33098;52.400;16.880;2022-08-19T01:18:01;100068.16;;;26.43;58.61
24336;BME280;33098;52.400;16.880;2022-08-19T01:20:30;100068.73;;;26.44;58.60
24336;BME280;33098;52.400;16.880;2022-08-19T01:22:57;100066.91;;;26.45;58.48
24336;BME280;33098;52.400;16.880;2022-08-19T01:25:26;100067.36;;;26.46;58.67
24336;BME280;33098;52.400;16.880;2022-08-19T01:27:54;100070.66;;;26.47;58.58
24336;BME280;33098;52.400;16.880;2022-08-19T01:30:26;100067.29;;;26.45;58.45
24336;BME280;33098;52.400;16.880;2022-08-19T01:32:53;100069.81;;;26.43;58.51
24336;BME280;33098;52.400;16.880;2022-08-19T01:35:21;100066.21;;;26.41;58.48
24336;BME280;33098;52.400;16.880;2022-08-19T01:37:53;100058.84;;;26.42;58.48
24336;BME280;33098;52.400;16.880;2022-08-19T01:40:21;100056.43;;;26.39;58.44
24336;BME280;33098;52.400;16.880;2022-08-19T01:42:48;100053.17;;;26.35;58.46
24336;BME280;33098;52.400;16.880;2022-08-19T01:45:15;100049.34;;;26.35;58.76
24336;BME280;33098;52.400;16.880;2022-08-19T01:47:42;100046.39;;;26.37;58.57
24336;BME280;33098;52.400;16.880;2022-08-19T01:50:09;100044.92;;;26.35;58.73
24336;BME280;33098;52.400;16.880;2022-08-19T01:52:36;100037.02;;;26.30;58.75
24336;BME280;33098;52.400;16.880;2022-08-19T01:55:04;100037.01;;;26.27;58.86
24336;BME280;33098;52.400;16.880;2022-08-19T01:57:31;100029.61;;;26.29;58.94
24336;BME280;33098;52.400;16.880;2022-08-19T01:59:57;100027.02;;;26.30;59.10
24336;BME280;33098;52.400;16.880;2022-08-19T02:02:25;100027.23;;;26.30;59.06
24336;BME280;33098;52.400;16.880;2022-08-19T02:04:51;100026.33;;;26.26;59.09
24336;BME280;33098;52.400;16.880;2022-08-19T02:07:19;100024.48;;;26.26;59.05
24336;BME280;33098;52.400;16.880;2022-08-19T02:09:46;100030.39;;;26.24;59.07
24336;BME280;33098;52.400;16.880;2022-08-19T02:12:14;100027.63;;;26.19;59.17
24336;BME280;33098;52.400;16.880;2022-08-19T02:14:40;100024.54;;;26.18;59.37
24336;BME280;33098;52.400;16.880;2022-08-19T02:17:07;100019.01;;;26.19;59.52
24336;BME280;33098;52.400;16.880;2022-08-19T02:19:34;100017.25;;;26.19;59.53
24336;BME280;33098;52.400;16.880;2022-08-19T02:22:00;100016.31;;;26.18;59.64
24336;BME280;33098;52.400;16.880;2022-08-19T02:24:27;100015.44;;;26.18;59.70
24336;BME280;33098;52.400;16.880;2022-08-19T02:26:53;100004.00;;;26.16;59.75
24336;BME280;33098;52.400;16.880;2022-08-19T02:29:20;99999.45;;;26.16;59.77
24336;BME280;33098;52.400;16.880;2022-08-19T02:31:46;99998.58;;;26.16;59.70
24336;BME280;33098;52.400;16.880;2022-08-19T02:34:13;99995.14;;;26.16;59.77
24336;BME280;33098;52.400;16.880;2022-08-19T02:36:39;99994.23;;;26.14;59.93
24336;BME280;33098;52.400;16.880;2022-08-19T02:39:06;99987.67;;;26.11;59.77
24336;BME280;33098;52.400;16.880;2022-08-19T02:41:32;99988.15;;;26.09;59.65
24336;BME280;33098;52.400;16.880;2022-08-19T02:44:00;99991.34;;;26.10;59.88
24336;BME280;33098;52.400;16.880;2022-08-19T02:46:28;99996.33;;;26.06;59.71
24336;BME280;33098;52.400;16.880;2022-08-19T02:48:56;99996.73;;;26.04;59.85
24336;BME280;33098;52.400;16.880;2022-08-19T02:51:25;99995.83;;;26.04;59.93
24336;BME280;33098;52.400;16.880;2022-08-19T02:53:51;99991.02;;;26.06;59.97
24336;BME280;33098;52.400;16.880;2022-08-19T02:56:18;99988.99;;;26.07;59.99
24336;BME280;33098;52.400;16.880;2022-08-19T02:58:45;99989.59;;;26.07;59.91
24336;BME280;33098;52.400;16.880;2022-08-19T03:01:19;99985.23;;;26.07;60.09
24336;BME280;33098;52.400;16.880;2022-08-19T03:03:45;99980.06;;;26.08;60.18
24336;BME280;33098;52.400;16.880;2022-08-19T03:06:13;99981.55;;;26.09;60.15
24336;BME280;33098;52.400;16.880;2022-08-19T03:08:41;99979.10;;;26.09;60.19
24336;BME280;33098;52.400;16.880;2022-08-19T03:11:18;99979.04;;;26.08;60.16
24336;BME280;33098;52.400;16.880;2022-08-19T03:13:46;99975.84;;;26.07;60.07
24336;BME280;33098;52.400;16.880;2022-08-19T03:16:12;99972.89;;;26.03;60.29
24336;BME280;33098;52.400;16.880;2022-08-19T03:18:38;99969.44;;;26.01;60.09
24336;BME280;33098;52.400;16.880;2022-08-19T03:21:05;99968.55;;;25.98;60.39
24336;BME280;33098;52.400;16.880;2022-08-19T03:23:32;99974.43;;;25.95;60.30
24336;BME280;33098;52.400;16.880;2022-08-19T03:26:02;99971.40;;;25.95;60.54
24336;BME280;33098;52.400;16.880;2022-08-19T03:28:30;99970.34;;;25.93;60.43
24336;BME280;33098;52.400;16.880;2022-08-19T03:30:58;99969.92;;;25.90;60.56
24336;BME280;33098;52.400;16.880;2022-08-19T03:33:26;99966.91;;;25.85;60.67
24336;BME280;33098;52.400;16.880;2022-08-19T03:38:31;99967.11;;;25.80;60.82
24336;BME280;33098;52.400;16.880;2022-08-19T03:41:01;99967.60;;;25.78;60.85
24336;BME280;33098;52.400;16.880;2022-08-19T03:43:28;99969.98;;;25.73;60.95
24336;BME280;33098;52.400;16.880;2022-08-19T03:46:01;99971.42;;;25.70;61.05
24336;BME280;33098;52.400;16.880;2022-08-19T03:48:28;99968.36;;;25.67;61.12
24336;BME280;33098;52.400;16.880;2022-08-19T03:50:56;99967.91;;;25.62;61.02
24336;BME280;33098;52.400;16.880;2022-08-19T03:53:23;99972.02;;;25.60;61.12
24336;BME280;33098;52.400;16.880;2022-08-19T03:55:50;99970.83;;;25.61;61.37
24336;BME280;33098;52.400;16.880;2022-08-19T03:58:16;99974.28;;;25.60;61.43
24336;BME280;33098;52.400;16.880;2022-08-19T04:00:43;99975.48;;;25.55;61.51
24336;BME280;33098;52.400;16.880;2022-08-19T04:03:09;99976.50;;;25.49;61.58
24336;BME280;33098;52.400;16.880;2022-08-19T04:05:35;99975.21;;;25.48;61.74
24336;BME280;33098;52.400;16.880;2022-08-19T04:08:03;99983.59;;;25.46;61.74
24336;BME280;33098;52.400;16.880;2022-08-19T04:10:38;99990.14;;;25.44;61.84
24336;BME280;33098;52.400;16.880;2022-08-19T04:13:06;99996.31;;;25.40;61.80
24336;BME280;33098;52.400;16.880;2022-08-19T04:15:33;99994.27;;;25.41;61.98
24336;BME280;33098;52.400;16.880;2022-08-19T04:18:05;99993.21;;;25.43;62.03
24336;BME280;33098;52.400;16.880;2022-08-19T04:20:41;99986.57;;;25.45;62.14
24336;BME280;33098;52.400;16.880;2022-08-19T04:23:07;99984.52;;;25.44;62.22
24336;BME280;33098;52.400;16.880;2022-08-19T04:25:38;99977.40;;;25.42;62.21
24336;BME280;33098;52.400;16.880;2022-08-19T04:28:05;99970.36;;;25.41;62.15
24336;BME280;33098;52.400;16.880;2022-08-19T04:30:36;99970.21;;;25.42;62.30
24336;BME280;33098;52.400;16.880;2022-08-19T04:33:03;99971.23;;;25.44;62.34
24336;BME280;33098;52.400;16.880;2022-08-19T04:35:37;99982.89;;;25.45;62.18
24336;BME280;33098;52.400;16.880;2022-08-19T04:38:04;100003.92;;;25.45;62.24
24336;BME280;33098;52.400;16.880;2022-08-19T04:40:31;100012.61;;;25.44;61.90
24336;BME280;33098;52.400;16.880;2022-08-19T04:43:16;100009.88;;;25.45;62.07
24336;BME280;33098;52.400;16.880;2022-08-19T04:45:43;100002.23;;;25.47;62.25
24336;BME280;33098;52.400;16.880;2022-08-19T04:48:10;100003.04;;;25.46;62.29
24336;BME280;33098;52.400;16.880;2022-08-19T04:50:41;100000.91;;;25.45;62.15
24336;BME280;33098;52.400;16.880;2022-08-19T04:53:08;99993.94;;;25.39;62.07
24336;BME280;33098;52.400;16.880;2022-08-19T04:55:37;99984.24;;;25.36;62.38
24336;BME280;33098;52.400;16.880;2022-08-19T04:58:04;99983.53;;;25.37;62.46
24336;BME280;33098;52.400;16.880;2022-08-19T05:00:30;99993.31;;;25.36;62.04
24336;BME280;33098;52.400;16.880;2022-08-19T05:02:57;100008.23;;;25.35;62.22
24336;BME280;33098;52.400;16.880;2022-08-19T05:05:23;99995.95;;;25.34;62.24
24336;BME280;33098;52.400;16.880;2022-08-19T05:07:50;99984.41;;;25.32;62.12
24336;BME280;33098;52.400;16.880;2022-08-19T05:10:16;99980.63;;;25.29;62.24
24336;BME280;33098;52.400;16.880;2022-08-19T05:12:42;99984.23;;;25.28;62.40
24336;BME280;33098;52.400;16.880;2022-08-19T05:15:09;99977.20;;;25.25;62.36
24336;BME280;33098;52.400;16.880;2022-08-19T05:17:35;99973.09;;;25.23;62.01
24336;BME280;33098;52.400;16.880;2022-08-19T05:20:03;99976.52;;;25.19;62.21
24336;BME280;33098;52.400;16.880;2022-08-19T05:22:48;99974.52;;;25.18;62.80
24336;BME280;33098;52.400;16.880;2022-08-19T05:25:16;99971.72;;;25.21;62.71
24336;BME280;33098;52.400;16.880;2022-08-19T05:27:44;99969.77;;;25.23;62.77
24336;BME280;33098;52.400;16.880;2022-08-19T05:30:11;99966.33;;;25.23;62.84
24336;BME280;33098;52.400;16.880;2022-08-19T05:32:38;99964.38;;;25.21;62.96
24336;BME280;33098;52.400;16.880;2022-08-19T05:35:05;99974.20;;;25.24;63.04
24336;BME280;33098;52.400;16.880;2022-08-19T05:37:31;99972.41;;;25.26;63.11
24336;BME280;33098;52.400;16.880;2022-08-19T05:39:58;99967.21;;;25.29;63.12
24336;BME280;33098;52.400;16.880;2022-08-19T05:42:24;99968.27;;;25.33;63.14
24336;BME280;33098;52.400;16.880;2022-08-19T05:44:52;99970.59;;;25.34;62.83
24336;BME280;33098;52.400;16.880;2022-08-19T05:47:18;99976.08;;;25.36;63.15
24336;BME280;33098;52.400;16.880;2022-08-19T05:49:46;99973.46;;;25.38;62.97
24336;BME280;33098;52.400;16.880;2022-08-19T05:52:13;99964.63;;;25.37;63.02
24336;BME280;33098;52.400;16.880;2022-08-19T05:54:41;99958.09;;;25.37;63.03
24336;BME280;33098;52.400;16.880;2022-08-19T05:57:09;99952.38;;;25.38;63.12
24336;BME280;33098;52.400;16.880;2022-08-19T05:59:35;99939.80;;;25.40;63.12
24336;BME280;33098;52.400;16.880;2022-08-19T06:02:03;99937.52;;;25.44;63.21
24336;BME280;33098;52.400;16.880;2022-08-19T06:04:29;99944.17;;;25.49;63.28
24336;BME280;33098;52.400;16.880;2022-08-19T06:06:56;99950.20;;;25.52;63.06
24336;BME280;33098;52.400;16.880;2022-08-19T06:09:23;99957.86;;;25.63;63.39
24336;BME280;33098;52.400;16.880;2022-08-19T06:11:50;99968.34;;;25.79;63.10
24336;BME280;33098;52.400;16.880;2022-08-19T06:14:21;99967.45;;;25.83;62.58
24336;BME280;33098;52.400;16.880;2022-08-19T06:16:48;99964.36;;;25.81;62.42
24336;BME280;33098;52.400;16.880;2022-08-19T06:19:18;99963.21;;;25.90;62.60
24336;BME280;33098;52.400;16.880;2022-08-19T06:21:46;99960.70;;;26.02;62.46
24336;BME280;33098;52.400;16.880;2022-08-19T06:24:14;99957.92;;;26.08;62.28
24336;BME280;33098;52.400;16.880;2022-08-19T06:26:42;99956.34;;;26.08;62.38
24336;BME280;33098;52.400;16.880;2022-08-19T06:29:10;99953.67;;;26.09;62.39
24336;BME280;33098;52.400;16.880;2022-08-19T06:31:37;99952.34;;;26.12;62.47
24336;BME280;33098;52.400;16.880;2022-08-19T06:34:06;99953.35;;;26.16;62.40
24336;BME280;33098;52.400;16.880;2022-08-19T06:36:34;99949.03;;;26.18;62.52
24336;BME280;33098;52.400;16.880;2022-08-19T06:39:01;99944.67;;;26.20;62.52
24336;BME280;33098;52.400;16.880;2022-08-19T06:41:29;99941.44;;;26.20;62.14
24336;BME280;33098;52.400;16.880;2022-08-19T06:43:56;99938.51;;;26.20;62.22
24336;BME280;33098;52.400;16.880;2022-08-19T06:46:23;99939.48;;;26.22;62.54
24336;BME280;33098;52.400;16.880;2022-08-19T06:48:50;99951.67;;;26.23;62.33
24336;BME280;33098;52.400;16.880;2022-08-19T06:51:19;99958.51;;;26.26;62.20
24336;BME280;33098;52.400;16.880;2022-08-19T06:53:47;99966.82;;;26.29;62.31
24336;BME280;33098;52.400;16.880;2022-08-19T06:56:18;99971.98;;;26.33;62.23
24336;BME280;33098;52.400;16.880;2022-08-19T06:58:45;99981.14;;;26.35;62.19
24336;BME280;33098;52.400;16.880;2022-08-19T07:01:12;99980.89;;;26.36;62.02
24336;BME280;33098;52.400;16.880;2022-08-19T07:03:39;99972.56;;;26.38;61.89
24336;BME280;33098;52.400;16.880;2022-08-19T07:06:13;99982.64;;;26.38;62.17
24336;BME280;33098;52.400;16.880;2022-08-19T07:08:41;99981.71;;;26.41;62.21
24336;BME280;33098;52.400;16.880;2022-08-19T07:11:09;99983.07;;;26.45;62.21
24336;BME280;33098;52.400;16.880;2022-08-19T07:13:36;99982.71;;;26.51;61.95
24336;BME280;33098;52.400;16.880;2022-08-19T07:16:06;99985.91;;;26.57;62.07
24336;BME280;33098;52.400;16.880;2022-08-19T07:18:34;99990.60;;;26.67;62.21
24336;BME280;33098;52.400;16.880;2022-08-19T07:21:14;100001.18;;;26.75;62.00
24336;BME280;33098;52.400;16.880;2022-08-19T07:23:41;100006.55;;;26.78;61.84
24336;BME280;33098;52.400;16.880;2022-08-19T07:26:12;100007.05;;;26.76;61.77
24336;BME280;33098;52.400;16.880;2022-08-19T07:28:39;100006.20;;;26.77;61.60
24336;BME280;33098;52.400;16.880;2022-08-19T07:31:06;100009.00;;;26.80;61.66
24336;BME280;33098;52.400;16.880;2022-08-19T07:33:33;100008.68;;;26.85;61.64
24336;BME280;33098;52.400;16.880;2022-08-19T07:36:06;100013.19;;;26.87;61.32
24336;BME280;33098;52.400;16.880;2022-08-19T07:38:33;100027.26;;;26.83;61.47
24336;BME280;33098;52.400;16.880;2022-08-19T07:41:00;100031.03;;;26.79;61.51
24336;BME280;33098;52.400;16.880;2022-08-19T07:43:27;100027.59;;;26.81;61.57
24336;BME280;33098;52.400;16.880;2022-08-19T07:45:54;100034.89;;;26.90;61.75
24336;BME280;33098;52.400;16.880;2022-08-19T07:48:23;100033.21;;;26.99;61.58
24336;BME280;33098;52.400;16.880;2022-08-19T07:50:52;100033.71;;;27.04;61.52
24336;BME280;33098;52.400;16.880;2022-08-19T07:53:19;100031.61;;;27.13;61.59
24336;BME280;33098;52.400;16.880;2022-08-19T07:55:46;100022.34;;;27.22;61.45
24336;BME280;33098;52.400;16.880;2022-08-19T07:58:13;100021.89;;;27.33;61.36
24336;BME280;33098;52.400;16.880;2022-08-19T08:00:40;100016.98;;;27.40;61.12
24336;BME280;33098;52.400;16.880;2022-08-19T08:03:07;100024.40;;;27.44;60.88
24336;BME280;33098;52.400;16.880;2022-08-19T08:05:34;100012.86;;;27.47;60.79
24336;BME280;33098;52.400;16.880;2022-08-19T08:08:19;100014.06;;;27.49;60.88
24336;BME280;33098;52.400;16.880;2022-08-19T08:11:04;100014.02;;;27.56;60.81
24336;BME280;33098;52.400;16.880;2022-08-19T08:13:31;100014.41;;;27.63;60.67
24336;BME280;33098;52.400;16.880;2022-08-19T08:16:01;100014.45;;;27.68;60.41
24336;BME280;33098;52.400;16.880;2022-08-19T08:18:28;100006.31;;;27.74;60.53
24336;BME280;33098;52.400;16.880;2022-08-19T08:20:55;100005.29;;;27.81;60.49
24336;BME280;33098;52.400;16.880;2022-08-19T08:23:22;100006.63;;;27.88;60.29
24336;BME280;33098;52.400;16.880;2022-08-19T08:25:54;100011.23;;;27.96;60.40
24336;BME280;33098;52.400;16.880;2022-08-19T08:28:21;100011.14;;;28.05;60.38
24336;BME280;33098;52.400;16.880;2022-08-19T08:30:48;100012.67;;;28.11;60.17
24336;BME280;33098;52.400;16.880;2022-08-19T08:33:22;100012.40;;;28.18;60.26
24336;BME280;33098;52.400;16.880;2022-08-19T08:35:50;100014.83;;;28.30;60.02
24336;BME280;33098;52.400;16.880;2022-08-19T08:38:16;100024.72;;;28.35;59.86
24336;BME280;33098;52.400;16.880;2022-08-19T08:40:45;100023.63;;;28.42;59.65
24336;BME280;33098;52.400;16.880;2022-08-19T08:43:27;100023.54;;;28.47;59.55
24336;BME280;33098;52.400;16.880;2022-08-19T08:46:05;100020.66;;;28.52;59.12
24336;BME280;33098;52.400;16.880;2022-08-19T08:48:34;100032.52;;;28.60;59.15
24336;BME280;33098;52.400;16.880;2022-08-19T08:51:03;100036.92;;;28.63;58.97
24336;BME280;33098;52.400;16.880;2022-08-19T08:53:31;100039.90;;;28.61;58.83
24336;BME280;33098;52.400;16.880;2022-08-19T08:56:00;100037.42;;;28.60;58.97
24336;BME280;33098;52.400;16.880;2022-08-19T08:59:12;100035.63;;;28.65;58.60
24336;BME280;33098;52.400;16.880;2022-08-19T09:01:17;100030.09;;;28.69;58.66
24336;BME280;33098;52.400;16.880;2022-08-19T09:03:43;100025.20;;;28.76;58.81
24336;BME280;33098;52.400;16.880;2022-08-19T09:06:21;100024.41;;;28.83;58.74
24336;BME280;33098;52.400;16.880;2022-08-19T09:12:04;100025.25;;;29.04;58.20
24336;BME280;33098;52.400;16.880;2022-08-19T09:14:34;100025.92;;;29.14;58.14
24336;BME280;33098;52.400;16.880;2022-08-19T09:17:03;100023.90;;;29.24;57.88
24336;BME280;33098;52.400;16.880;2022-08-19T09:19:30;100027.35;;;29.30;57.55
24336;BME280;33098;52.400;16.880;2022-08-19T09:21:56;100023.83;;;29.33;57.38
24336;BME280;33098;52.400;16.880;2022-08-19T09:24:23;100029.55;;;29.39;57.26
24336;BME280;33098;52.400;16.880;2022-08-19T09:26:49;100029.10;;;29.44;56.60
24336;BME280;33098;52.400;16.880;2022-08-19T09:29:15;100027.61;;;29.48;56.74
24336;BME280;33098;52.400;16.880;2022-08-19T09:31:42;100018.52;;;29.55;56.44
24336;BME280;33098;52.400;16.880;2022-08-19T09:34:08;100028.09;;;29.66;56.77
24336;BME280;33098;52.400;16.880;2022-08-19T09:36:34;100035.48;;;29.76;56.36
24336;BME280;33098;52.400;16.880;2022-08-19T09:39:05;100029.78;;;29.82;56.05
24336;BME280;33098;52.400;16.880;2022-08-19T09:41:32;100022.48;;;29.90;56.34
24336;BME280;33098;52.400;16.880;2022-08-19T09:43:58;100023.08;;;30.01;56.16
24336;BME280;33098;52.400;16.880;2022-08-19T09:46:25;100018.20;;;30.14;55.68
24336;BME280;33098;52.400;16.880;2022-08-19T09:48:52;100012.27;;;30.21;54.78
24336;BME280;33098;52.400;16.880;2022-08-19T09:51:23;100013.10;;;30.22;54.42
24336;BME280;33098;52.400;16.880;2022-08-19T09:53:50;100012.63;;;30.31;54.59
24336;BME280;33098;52.400;16.880;2022-08-19T09:56:18;100017.82;;;30.37;54.17
24336;BME280;33098;52.400;16.880;2022-08-19T09:58:44;100022.98;;;30.42;54.21
24336;BME280;33098;52.400;16.880;2022-08-19T10:01:18;100020.47;;;30.50;54.04
24336;BME280;33098;52.400;16.880;2022-08-19T10:03:47;100024.27;;;30.58;53.75
24336;BME280;33098;52.400;16.880;2022-08-19T10:06:14;100024.76;;;30.67;53.28
24336;BME280;33098;52.400;16.880;2022-08-19T10:08:40;100023.30;;;30.72;53.30
24336;BME280;33098;52.400;16.880;2022-08-19T10:11:07;100020.27;;;30.78;53.60
24336;BME280;33098;52.400;16.880;2022-08-19T10:13:35;100013.66;;;30.86;53.24
24336;BME280;33098;52.400;16.880;2022-08-19T10:16:04;100009.38;;;30.98;53.21
24336;BME280;33098;52.400;16.880;2022-08-19T10:18:30;100010.06;;;31.10;53.01
24336;BME280;33098;52.400;16.880;2022-08-19T10:21:06;100000.43;;;31.20;52.59
24336;BME280;33098;52.400;16.880;2022-08-19T10:23:35;99992.10;;;31.30;52.46
24336;BME280;33098;52.400;16.880;2022-08-19T10:26:03;99984.55;;;31.44;52.31
24336;BME280;33098;52.400;16.880;2022-08-19T10:28:33;99979.17;;;31.55;51.67
24336;BME280;33098;52.400;16.880;2022-08-19T10:31:03;99980.64;;;31.64;51.59
24336;BME280;33098;52.400;16.880;2022-08-19T10:33:30;99983.64;;;31.78;51.26
24336;BME280;33098;52.400;16.880;2022-08-19T10:36:01;99990.30;;;31.93;51.00
24336;BME280;33098;52.400;16.880;2022-08-19T10:38:28;99990.69;;;32.01;51.02
24336;BME280;33098;52.400;16.880;2022-08-19T10:40:54;99974.61;;;32.07;50.55
24336;BME280;33098;52.400;16.880;2022-08-19T10:43:21;99971.38;;;32.17;50.47
24336;BME280;33098;52.400;16.880;2022-08-19T10:45:54;99976.52;;;32.22;49.81
24336;BME280;33098;52.400;16.880;2022-08-19T10:48:24;99976.90;;;32.24;49.76
24336;BME280;33098;52.400;16.880;2022-08-19T10:50:51;99978.33;;;32.25;49.58
24336;BME280;33098;52.400;16.880;2022-08-19T10:53:35;99982.33;;;32.42;49.87
24336;BME280;33098;52.400;16.880;2022-08-19T10:56:02;99994.85;;;32.60;49.02
24336;BME280;33098;52.400;16.880;2022-08-19T10:58:47;99990.73;;;32.69;48.63
24336;BME280;33098;52.400;16.880;2022-08-19T11:01:15;99988.55;;;32.77;49.01
24336;BME280;33098;52.400;16.880;2022-08-19T11:03:41;99992.02;;;32.91;48.89
24336;BME280;33098;52.400;16.880;2022-08-19T11:06:08;99986.12;;;32.94;48.38
24336;BME280;33098;52.400;16.880;2022-08-19T11:08:35;99982.27;;;33.01;48.23
24336;BME280;33098;52.400;16.880;2022-08-19T11:11:04;99985.05;;;33.08;47.81
24336;BME280;33098;52.400;16.880;2022-08-19T11:13:32;99991.84;;;33.21;48.32
24336;BME280;33098;52.400;16.880;2022-08-19T11:16:00;99992.89;;;33.37;47.98
24336;BME280;33098;52.400;16.880;2022-08-19T11:18:27;99990.69;;;33.45;47.75
24336;BME280;33098;52.400;16.880;2022-08-19T11:20:54;99992.92;;;33.51;47.70
24336;BME280;33098;52.400;16.880;2022-08-19T11:23:20;99995.01;;;33.60;47.37
24336;BME280;33098;52.400;16.880;2022-08-19T11:25:47;99987.82;;;33.61;46.47
24336;BME280;33098;52.400;16.880;2022-08-19T11:28:13;99992.48;;;33.61;46.46
24336;BME280;33098;52.400;16.880;2022-08-19T11:30:40;99990.80;;;33.62;46.08
24336;BME280;33098;52.400;16.880;2022-08-19T11:33:06;99994.98;;;33.73;46.84
24336;BME280;33098;52.400;16.880;2022-08-19T11:35:32;99995.30;;;33.87;46.28
24336;BME280;33098;52.400;16.880;2022-08-19T11:37:59;99999.99;;;33.99;45.63
24336;BME280;33098;52.400;16.880;2022-08-19T11:40:28;100003.31;;;33.99;45.29
24336;BME280;33098;52.400;16.880;2022-08-19T11:42:54;100009.32;;;34.08;45.11
24336;BME280;33098;52.400;16.880;2022-08-19T11:45:24;100013.23;;;34.22;44.87
24336;BME280;33098;52.400;16.880;2022-08-19T11:47:51;100018.06;;;34.32;44.67
24336;BME280;33098;52.400;16.880;2022-08-19T11:50:19;100015.83;;;34.38;43.74
24336;BME280;33098;52.400;16.880;2022-08-19T11:52:45;100016.77;;;34.43;43.22
24336;BME280;33098;52.400;16.880;2022-08-19T11:55:13;100012.12;;;34.49;43.34
24336;BME280;33098;52.400;16.880;2022-08-19T11:57:40;100009.96;;;34.60;43.49
24336;BME280;33098;52.400;16.880;2022-08-19T12:00:10;100005.59;;;34.70;43.35
24336;BME280;33098;52.400;16.880;2022-08-19T12:02:38;100015.06;;;34.90;43.52
24336;BME280;33098;52.400;16.880;2022-08-19T12:05:05;100018.39;;;35.04;42.73
24336;BME280;33098;52.400;16.880;2022-08-19T12:07:32;100021.20;;;34.99;42.78
24336;BME280;33098;52.400;16.880;2022-08-19T12:09:59;100024.77;;;35.07;42.96
24336;BME280;33098;52.400;16.880;2022-08-19T12:12:26;100021.20;;;35.19;42.52
24336;BME280;33098;52.400;16.880;2022-08-19T12:14:52;100021.49;;;35.26;42.19
24336;BME280;33098;52.400;16.880;2022-08-19T12:17:23;100020.95;;;35.20;41.23
24336;BME280;33098;52.400;16.880;2022-08-19T12:19:49;100021.21;;;35.17;42.25
24336;BME280;33098;52.400;16.880;2022-08-19T12:22:16;100022.70;;;35.35;42.03
24336;BME280;33098;52.400;16.880;2022-08-19T12:24:42;100023.66;;;35.48;41.93
24336;BME280;33098;52.400;16.880;2022-08-19T12:27:09;100020.52;;;35.57;41.41
24336;BME280;33098;52.400;16.880;2022-08-19T12:29:35;100022.44;;;35.63;41.68
24336;BME280;33098;52.400;16.880;2022-08-19T12:32:02;100022.98;;;35.79;41.99
24336;BME280;33098;52.400;16.880;2022-08-19T12:34:29;100025.18;;;36.06;41.72
24336;BME280;33098;52.400;16.880;2022-08-19T12:36:57;100026.42;;;36.14;41.18
24336;BME280;33098;52.400;16.880;2022-08-19T12:39:24;100030.45;;;36.25;41.17
24336;BME280;33098;52.400;16.880;2022-08-19T12:41:50;100036.20;;;36.13;41.01
24336;BME280;33098;52.400;16.880;2022-08-19T12:44:17;100038.93;;;35.83;41.35
24336;BME280;33098;52.400;16.880;2022-08-19T12:46:43;100040.45;;;35.50;42.01
24336;BME280;33098;52.400;16.880;2022-08-19T12:49:10;100041.95;;;35.27;41.91
24336;BME280;33098;52.400;16.880;2022-08-19T12:51:36;100039.10;;;35.03;42.35
24336;BME280;33098;52.400;16.880;2022-08-19T12:54:03;100032.78;;;34.88;42.77
24336;BME280;33098;52.400;16.880;2022-08-19T12:56:30;100034.48;;;34.72;42.83